sensor_id;sensor_type;location;lat;lon;timestamp;P1;durP1;ratioP1;P2;durP2;ratioP2
69310;SDS011;56430;48.154;16.458;2024-01-16T00:02:22;3.15;;;0.80;;
69310;SDS011;56430;48.154;16.458;2024-01-16T00:04:49;4.07;;;1.35;;
69310;SDS011;56430;48.154;16.458;2024-01-16T00:07:17;3.53;;;1.00;;
69310;SDS011;56430;48.154;16.458;2024-01-16T00:09:44;4.50;;;1.20;;
69310;SDS011;56430;48.154;16.458;2024-01-16T00:12:12;4.13;;;0.82;;
69310;SDS011;56430;48.154;16.458;2024-01-16T00:14:39;5.28;;;1.15;;
69310;SDS011;56430;48.154;16.458;2024-01-16T00:17:06;3.55;;;0.93;;
69310;SDS011;56430;48.154;16.458;2024-01-16T00:19:34;3.65;;;1.23;;
69310;SDS011;56430;48.154;16.458;2024-01-16T00:22:02;3.47;;;0.90;;
69310;SDS011;56430;48.154;16.458;2024-01-16T00:24:31;4.03;;;1.27;;
69310;SDS011;56430;48.154;16.458;2024-01-16T00:26:58;4.43;;;1.17;;
69310;SDS011;56430;48.154;16.458;2024-01-16T00:29:26;5.43;;;0.90;;
69310;SDS011;56430;48.154;16.458;2024-01-16T00:31:53;4.25;;;0.88;;
69310;SDS011;56430;48.154;16.458;2024-01-16T00:34:20;4.33;;;1.03;;
69310;SDS011;56430;48.154;16.458;2024-01-16T00:36:47;3.85;;;1.20;;
69310;SDS011;56430;48.154;16.458;2024-01-16T00:39:14;3.00;;;0.80;;
69310;SDS011;56430;48.154;16.458;2024-01-16T00:41:43;2.83;;;0.90;;
69310;SDS011;56430;48.154;16.458;2024-01-16T00:44:10;3.45;;;1.02;;
69310;SDS011;56430;48.154;16.458;2024-01-16T00:46:37;3.03;;;0.73;;
69310;SDS011;56430;48.154;16.458;2024-01-16T00:49:04;3.80;;;1.27;;
69310;SDS011;56430;48.154;16.458;2024-01-16T00:51:33;4.88;;;0.70;;
69310;SDS011;56430;48.154;16.458;2024-01-16T00:54:00;4.72;;;1.00;;
69310;SDS011;56430;48.154;16.458;2024-01-16T00:56:27;5.03;;;1.30;;
69310;SDS011;56430;48.154;16.458;2024-01-16T00:58:58;2.80;;;1.00;;
69310;SDS011;56430;48.154;16.458;2024-01-16T01:01:25;4.03;;;1.23;;
69310;SDS011;56430;48.154;16.458;2024-01-16T01:03:52;2.95;;;0.98;;
69310;SDS011;56430;48.154;16.458;2024-01-16T01:06:20;3.30;;;1.05;;
69310;SDS011;56430;48.154;16.458;2024-01-16T01:08:47;5.18;;;1.17;;
69310;SDS011;56430;48.154;16.458;2024-01-16T01:11:15;2.47;;;0.73;;
69310;SDS011;56430;48.154;16.458;2024-01-16T01:13:42;5.07;;;1.63;;
69310;SDS011;56430;48.154;16.458;2024-01-16T01:16:10;2.55;;;0.70;;
69310;SDS011;56430;48.154;16.458;2024-01-16T01:18:38;3.88;;;1.05;;
69310;SDS011;56430;48.154;16.458;2024-01-16T01:21:05;3.25;;;1.02;;
69310;SDS011;56430;48.154;16.458;2024-01-16T01:23:32;3.63;;;1.00;;
69310;SDS011;56430;48.154;16.458;2024-01-16T01:25:59;3.03;;;0.75;;
69310;SDS011;56430;48.154;16.458;2024-01-16T01:28:26;3.35;;;1.05;;
69310;SDS011;56430;48.154;16.458;2024-01-16T01:30:53;2.83;;;0.85;;
69310;SDS011;56430;48.154;16.458;2024-01-16T01:33:22;5.07;;;1.10;;
69310;SDS011;56430;48.154;16.458;2024-01-16T01:35:49;5.63;;;1.17;;
69310;SDS011;56430;48.154;16.458;2024-01-16T01:38:16;3.53;;;1.08;;
69310;SDS011;56430;48.154;16.458;2024-01-16T01:40:44;3.20;;;1.17;;
69310;SDS011;56430;48.154;16.458;2024-01-16T01:43:17;3.75;;;1.10;;
69310;SDS011;56430;48.154;16.458;2024-01-16T01:45:47;3.78;;;1.10;;
69310;SDS011;56430;48.154;16.458;2024-01-16T01:48:24;4.40;;;1.13;;
69310;SDS011;56430;48.154;16.458;2024-01-16T01:50:51;5.28;;;0.95;;
69310;SDS011;56430;48.154;16.458;2024-01-16T01:53:18;4.68;;;1.20;;
69310;SDS011;56430;48.154;16.458;2024-01-16T01:55:45;2.80;;;0.80;;
69310;SDS011;56430;48.154;16.458;2024-01-16T01:58:13;4.22;;;1.42;;
69310;SDS011;56430;48.154;16.458;2024-01-16T02:00:40;3.77;;;1.10;;
69310;SDS011;56430;48.154;16.458;2024-01-16T02:03:07;4.15;;;1.63;;
69310;SDS011;56430;48.154;16.458;2024-01-16T02:05:36;3.55;;;1.15;;
69310;SDS011;56430;48.154;16.458;2024-01-16T02:08:04;3.90;;;1.08;;
69310;SDS011;56430;48.154;16.458;2024-01-16T02:10:32;3.33;;;1.10;;
69310;SDS011;56430;48.154;16.458;2024-01-16T02:12:59;2.87;;;0.83;;
69310;SDS011;56430;48.154;16.458;2024-01-16T02:15:26;4.22;;;1.20;;
69310;SDS011;56430;48.154;16.458;2024-01-16T02:20:56;4.78;;;0.85;;
69310;SDS011;56430;48.154;16.458;2024-01-16T02:23:28;4.35;;;1.25;;
69310;SDS011;56430;48.154;16.458;2024-01-16T02:25:56;3.73;;;1.40;;
69310;SDS011;56430;48.154;16.458;2024-01-16T02:28:23;6.05;;;1.15;;
69310;SDS011;56430;48.154;16.458;2024-01-16T02:30:50;3.05;;;0.90;;
69310;SDS011;56430;48.154;16.458;2024-01-16T02:33:18;3.08;;;0.98;;
69310;SDS011;56430;48.154;16.458;2024-01-16T02:35:45;5.05;;;0.90;;
69310;SDS011;56430;48.154;16.458;2024-01-16T02:38:12;6.17;;;1.93;;
69310;SDS011;56430;48.154;16.458;2024-01-16T02:40:40;4.53;;;1.20;;
69310;SDS011;56430;48.154;16.458;2024-01-16T02:43:08;4.72;;;1.20;;
69310;SDS011;56430;48.154;16.458;2024-01-16T02:45:35;4.18;;;1.27;;
69310;SDS011;56430;48.154;16.458;2024-01-16T02:48:02;4.00;;;1.38;;
69310;SDS011;56430;48.154;16.458;2024-01-16T02:50:30;3.77;;;1.33;;
69310;SDS011;56430;48.154;16.458;2024-01-16T02:52:57;6.80;;;1.83;;
69310;SDS011;56430;48.154;16.458;2024-01-16T02:55:24;4.03;;;1.17;;
69310;SDS011;56430;48.154;16.458;2024-01-16T02:57:52;3.75;;;1.08;;
69310;SDS011;56430;48.154;16.458;2024-01-16T03:00:20;3.53;;;1.25;;
69310;SDS011;56430;48.154;16.458;2024-01-16T03:02:48;4.73;;;1.20;;
69310;SDS011;56430;48.154;16.458;2024-01-16T03:05:15;2.90;;;1.08;;
69310;SDS011;56430;48.154;16.458;2024-01-16T03:07:42;3.55;;;0.95;;
69310;SDS011;56430;48.154;16.458;2024-01-16T03:10:09;4.38;;;1.00;;
69310;SDS011;56430;48.154;16.458;2024-01-16T03:12:37;3.50;;;0.93;;
69310;SDS011;56430;48.154;16.458;2024-01-16T03:15:06;2.90;;;1.10;;
69310;SDS011;56430;48.154;16.458;2024-01-16T03:17:33;5.45;;;1.55;;
69310;SDS011;56430;48.154;16.458;2024-01-16T03:20:00;4.07;;;1.30;;
69310;SDS011;56430;48.154;16.458;2024-01-16T03:22:28;4.82;;;1.50;;
69310;SDS011;56430;48.154;16.458;2024-01-16T03:24:55;4.88;;;1.08;;
69310;SDS011;56430;48.154;16.458;2024-01-16T03:27:23;3.47;;;0.67;;
69310;SDS011;56430;48.154;16.458;2024-01-16T03:29:50;3.97;;;1.17;;
69310;SDS011;56430;48.154;16.458;2024-01-16T03:32:18;3.58;;;0.85;;
69310;SDS011;56430;48.154;16.458;2024-01-16T03:34:45;4.88;;;1.00;;
69310;SDS011;56430;48.154;16.458;2024-01-16T03:37:12;4.57;;;1.48;;
69310;SDS011;56430;48.154;16.458;2024-01-16T03:39:40;2.80;;;1.03;;
69310;SDS011;56430;48.154;16.458;2024-01-16T03:42:07;3.40;;;1.33;;
69310;SDS011;56430;48.154;16.458;2024-01-16T03:44:37;4.10;;;1.20;;
69310;SDS011;56430;48.154;16.458;2024-01-16T03:47:05;5.13;;;1.10;;
69310;SDS011;56430;48.154;16.458;2024-01-16T03:49:33;5.93;;;1.40;;
69310;SDS011;56430;48.154;16.458;2024-01-16T03:52:01;4.90;;;1.17;;
69310;SDS011;56430;48.154;16.458;2024-01-16T03:54:28;4.63;;;1.50;;
69310;SDS011;56430;48.154;16.458;2024-01-16T03:56:55;5.18;;;1.38;;
69310;SDS011;56430;48.154;16.458;2024-01-16T03:59:22;3.08;;;1.30;;
69310;SDS011;56430;48.154;16.458;2024-01-16T04:01:50;3.90;;;1.33;;
69310;SDS011;56430;48.154;16.458;2024-01-16T04:04:18;3.13;;;0.97;;
69310;SDS011;56430;48.154;16.458;2024-01-16T04:06:47;3.72;;;1.38;;
69310;SDS011;56430;48.154;16.458;2024-01-16T04:09:14;3.67;;;1.25;;
69310;SDS011;56430;48.154;16.458;2024-01-16T04:11:50;3.45;;;1.00;;
69310;SDS011;56430;48.154;16.458;2024-01-16T04:14:17;3.50;;;0.82;;
69310;SDS011;56430;48.154;16.458;2024-01-16T04:16:45;2.57;;;0.73;;
69310;SDS011;56430;48.154;16.458;2024-01-16T04:19:12;4.03;;;1.02;;
69310;SDS011;56430;48.154;16.458;2024-01-16T04:21:39;3.97;;;1.17;;
69310;SDS011;56430;48.154;16.458;2024-01-16T04:24:08;4.15;;;1.10;;
69310;SDS011;56430;48.154;16.458;2024-01-16T04:26:35;3.28;;;1.00;;
69310;SDS011;56430;48.154;16.458;2024-01-16T04:29:03;3.87;;;0.97;;
69310;SDS011;56430;48.154;16.458;2024-01-16T04:31:30;3.58;;;1.17;;
69310;SDS011;56430;48.154;16.458;2024-01-16T04:33:58;3.17;;;0.90;;
69310;SDS011;56430;48.154;16.458;2024-01-16T04:36:25;4.65;;;1.05;;
69310;SDS011;56430;48.154;16.458;2024-01-16T04:38:52;4.35;;;1.13;;
69310;SDS011;56430;48.154;16.458;2024-01-16T04:41:21;3.07;;;0.70;;
69310;SDS011;56430;48.154;16.458;2024-01-16T04:43:48;5.32;;;1.02;;
69310;SDS011;56430;48.154;16.458;2024-01-16T04:46:15;5.13;;;1.30;;
69310;SDS011;56430;48.154;16.458;2024-01-16T04:48:42;8.48;;;1.95;;
69310;SDS011;56430;48.154;16.458;2024-01-16T04:51:10;2.97;;;0.80;;
69310;SDS011;56430;48.154;16.458;2024-01-16T04:53:37;3.97;;;0.97;;
69310;SDS011;56430;48.154;16.458;2024-01-16T04:56:04;3.53;;;0.77;;
69310;SDS011;56430;48.154;16.458;2024-01-16T04:58:33;5.70;;;1.33;;
69310;SDS011;56430;48.154;16.458;2024-01-16T05:01:00;4.85;;;1.58;;
69310;SDS011;56430;48.154;16.458;2024-01-16T05:03:27;3.88;;;0.93;;
69310;SDS011;56430;48.154;16.458;2024-01-16T05:05:54;4.10;;;1.10;;
69310;SDS011;56430;48.154;16.458;2024-01-16T05:08:22;6.18;;;1.38;;
69310;SDS011;56430;48.154;16.458;2024-01-16T05:10:49;4.57;;;1.30;;
69310;SDS011;56430;48.154;16.458;2024-01-16T05:13:17;4.47;;;1.63;;
69310;SDS011;56430;48.154;16.458;2024-01-16T05:15:45;4.47;;;1.02;;
69310;SDS011;56430;48.154;16.458;2024-01-16T05:18:12;5.10;;;1.47;;
69310;SDS011;56430;48.154;16.458;2024-01-16T05:20:39;4.88;;;1.00;;
69310;SDS011;56430;48.154;16.458;2024-01-16T05:23:06;3.17;;;0.80;;
69310;SDS011;56430;48.154;16.458;2024-01-16T05:25:34;3.03;;;0.85;;
69310;SDS011;56430;48.154;16.458;2024-01-16T05:28:01;3.75;;;0.88;;
69310;SDS011;56430;48.154;16.458;2024-01-16T05:30:28;3.43;;;0.60;;
69310;SDS011;56430;48.154;16.458;2024-01-16T05:32:57;1.95;;;0.52;;
69310;SDS011;56430;48.154;16.458;2024-01-16T05:35:26;2.33;;;0.38;;
69310;SDS011;56430;48.154;16.458;2024-01-16T05:37:54;3.67;;;0.73;;
69310;SDS011;56430;48.154;16.458;2024-01-16T05:40:21;2.63;;;0.40;;
69310;SDS011;56430;48.154;16.458;2024-01-16T05:42:48;3.73;;;0.60;;
69310;SDS011;56430;48.154;16.458;2024-01-16T05:45:16;2.65;;;0.32;;
69310;SDS011;56430;48.154;16.458;2024-01-16T05:47:43;2.90;;;0.32;;
69310;SDS011;56430;48.154;16.458;2024-01-16T05:50:12;1.52;;;0.50;;
69310;SDS011;56430;48.154;16.458;2024-01-16T05:52:42;2.28;;;0.38;;
69310;SDS011;56430;48.154;16.458;2024-01-16T05:55:09;2.70;;;0.30;;
69310;SDS011;56430;48.154;16.458;2024-01-16T05:57:36;2.80;;;0.40;;
69310;SDS011;56430;48.154;16.458;2024-01-16T06:00:04;2.60;;;0.32;;
69310;SDS011;56430;48.154;16.458;2024-01-16T06:02:32;2.55;;;0.35;;
69310;SDS011;56430;48.154;16.458;2024-01-16T06:04:59;1.25;;;0.20;;
69310;SDS011;56430;48.154;16.458;2024-01-16T06:07:29;1.77;;;0.30;;
69310;SDS011;56430;48.154;16.458;2024-01-16T06:09:56;3.15;;;0.20;;
69310;SDS011;56430;48.154;16.458;2024-01-16T06:12:23;2.85;;;0.40;;
69310;SDS011;56430;48.154;16.458;2024-01-16T06:14:51;2.08;;;0.38;;
69310;SDS011;56430;48.154;16.458;2024-01-16T06:17:18;3.58;;;0.60;;
69310;SDS011;56430;48.154;16.458;2024-01-16T06:19:45;5.93;;;0.43;;
69310;SDS011;56430;48.154;16.458;2024-01-16T06:22:12;3.22;;;0.45;;
69310;SDS011;56430;48.154;16.458;2024-01-16T06:24:41;1.58;;;0.20;;
69310;SDS011;56430;48.154;16.458;2024-01-16T06:27:08;3.55;;;0.40;;
69310;SDS011;56430;48.154;16.458;2024-01-16T06:29:35;2.25;;;0.40;;
69310;SDS011;56430;48.154;16.458;2024-01-16T06:32:02;1.77;;;0.20;;
69310;SDS011;56430;48.154;16.458;2024-01-16T06:34:30;4.25;;;0.30;;
69310;SDS011;56430;48.154;16.458;2024-01-16T06:36:57;3.55;;;0.50;;
69310;SDS011;56430;48.154;16.458;2024-01-16T06:39:24;1.38;;;0.20;;
69310;SDS011;56430;48.154;16.458;2024-01-16T06:41:52;1.90;;;0.35;;
69310;SDS011;56430;48.154;16.458;2024-01-16T06:44:20;2.53;;;0.20;;
69310;SDS011;56430;48.154;16.458;2024-01-16T06:46:47;3.65;;;0.55;;
69310;SDS011;56430;48.154;16.458;2024-01-16T06:49:14;4.55;;;0.70;;
69310;SDS011;56430;48.154;16.458;2024-01-16T06:51:41;5.53;;;0.60;;
69310;SDS011;56430;48.154;16.458;2024-01-16T06:54:08;3.13;;;0.60;;
69310;SDS011;56430;48.154;16.458;2024-01-16T06:56:35;4.30;;;0.50;;
69310;SDS011;56430;48.154;16.458;2024-01-16T06:59:04;2.13;;;0.30;;
69310;SDS011;56430;48.154;16.458;2024-01-16T07:01:31;2.47;;;0.40;;
69310;SDS011;56430;48.154;16.458;2024-01-16T07:03:58;3.60;;;0.43;;
69310;SDS011;56430;48.154;16.458;2024-01-16T07:06:25;2.03;;;0.38;;
69310;SDS011;56430;48.154;16.458;2024-01-16T07:08:53;2.63;;;0.30;;
69310;SDS011;56430;48.154;16.458;2024-01-16T07:11:20;2.05;;;0.20;;
69310;SDS011;56430;48.154;16.458;2024-01-16T07:13:47;2.08;;;0.30;;
69310;SDS011;56430;48.154;16.458;2024-01-16T07:16:16;2.45;;;0.45;;
69310;SDS011;56430;48.154;16.458;2024-01-16T07:18:43;1.92;;;0.45;;
69310;SDS011;56430;48.154;16.458;2024-01-16T07:21:16;2.90;;;0.37;;
69310;SDS011;56430;48.154;16.458;2024-01-16T07:23:44;2.53;;;0.30;;
69310;SDS011;56430;48.154;16.458;2024-01-16T07:26:11;4.57;;;0.30;;
69310;SDS011;56430;48.154;16.458;2024-01-16T07:28:38;1.63;;;0.32;;
69310;SDS011;56430;48.154;16.458;2024-01-16T07:31:05;3.30;;;0.50;;
69310;SDS011;56430;48.154;16.458;2024-01-16T07:33:34;2.17;;;0.20;;
69310;SDS011;56430;48.154;16.458;2024-01-16T07:36:01;1.55;;;0.28;;
69310;SDS011;56430;48.154;16.458;2024-01-16T07:38:28;1.48;;;0.30;;
69310;SDS011;56430;48.154;16.458;2024-01-16T07:40:55;2.30;;;0.50;;
69310;SDS011;56430;48.154;16.458;2024-01-16T07:43:23;3.15;;;0.30;;
69310;SDS011;56430;48.154;16.458;2024-01-16T07:45:50;1.40;;;0.20;;
69310;SDS011;56430;48.154;16.458;2024-01-16T07:48:17;1.48;;;0.20;;
69310;SDS011;56430;48.154;16.458;2024-01-16T07:50:46;7.32;;;0.32;;
69310;SDS011;56430;48.154;16.458;2024-01-16T07:53:13;10.93;;;0.63;;
69310;SDS011;56430;48.154;16.458;2024-01-16T07:55:40;3.55;;;0.50;;
69310;SDS011;56430;48.154;16.458;2024-01-16T07:58:09;2.00;;;0.30;;
69310;SDS011;56430;48.154;16.458;2024-01-16T08:00:38;10.02;;;0.70;;
69310;SDS011;56430;48.154;16.458;2024-01-16T08:03:06;12.07;;;0.60;;
69310;SDS011;56430;48.154;16.458;2024-01-16T08:05:34;4.18;;;0.40;;
69310;SDS011;56430;48.154;16.458;2024-01-16T08:08:03;1.70;;;0.30;;
69310;SDS011;56430;48.154;16.458;2024-01-16T08:10:30;5.23;;;0.40;;
69310;SDS011;56430;48.154;16.458;2024-01-16T08:12:57;2.38;;;0.47;;
69310;SDS011;56430;48.154;16.458;2024-01-16T08:15:24;2.22;;;0.30;;
69310;SDS011;56430;48.154;16.458;2024-01-16T08:17:52;2.65;;;0.60;;
69310;SDS011;56430;48.154;16.458;2024-01-16T08:20:19;2.00;;;0.40;;
69310;SDS011;56430;48.154;16.458;2024-01-16T08:22:46;3.07;;;0.50;;
69310;SDS011;56430;48.154;16.458;2024-01-16T08:25:17;4.13;;;0.63;;
69310;SDS011;56430;48.154;16.458;2024-01-16T08:27:44;3.45;;;0.50;;
69310;SDS011;56430;48.154;16.458;2024-01-16T08:30:11;2.45;;;0.43;;
69310;SDS011;56430;48.154;16.458;2024-01-16T08:32:39;6.88;;;0.60;;
69310;SDS011;56430;48.154;16.458;2024-01-16T08:35:06;2.40;;;0.50;;
69310;SDS011;56430;48.154;16.458;2024-01-16T08:37:34;9.50;;;0.60;;
69310;SDS011;56430;48.154;16.458;2024-01-16T08:40:01;3.35;;;0.30;;
69310;SDS011;56430;48.154;16.458;2024-01-16T08:42:31;2.67;;;0.30;;
69310;SDS011;56430;48.154;16.458;2024-01-16T08:44:58;2.85;;;0.40;;
69310;SDS011;56430;48.154;16.458;2024-01-16T08:47:25;2.83;;;0.40;;
69310;SDS011;56430;48.154;16.458;2024-01-16T08:49:53;3.00;;;0.30;;
69310;SDS011;56430;48.154;16.458;2024-01-16T08:52:20;3.45;;;0.45;;
69310;SDS011;56430;48.154;16.458;2024-01-16T08:54:47;1.83;;;0.30;;
69310;SDS011;56430;48.154;16.458;2024-01-16T08:57:14;3.25;;;0.40;;
69310;SDS011;56430;48.154;16.458;2024-01-16T08:59:43;1.60;;;0.30;;
69310;SDS011;56430;48.154;16.458;2024-01-16T09:02:10;2.55;;;0.20;;
69310;SDS011;56430;48.154;16.458;2024-01-16T09:04:37;1.90;;;0.40;;
69310;SDS011;56430;48.154;16.458;2024-01-16T09:07:05;2.83;;;0.32;;
69310;SDS011;56430;48.154;16.458;2024-01-16T09:09:32;2.00;;;0.28;;
69310;SDS011;56430;48.154;16.458;2024-01-16T09:11:59;4.30;;;0.50;;
69310;SDS011;56430;48.154;16.458;2024-01-16T09:14:26;2.47;;;0.30;;
69310;SDS011;56430;48.154;16.458;2024-01-16T09:16:55;3.75;;;0.40;;
69310;SDS011;56430;48.154;16.458;2024-01-16T09:19:22;2.47;;;0.30;;
69310;SDS011;56430;48.154;16.458;2024-01-16T09:21:50;2.65;;;0.30;;
69310;SDS011;56430;48.154;16.458;2024-01-16T09:24:17;2.33;;;0.40;;
69310;SDS011;56430;48.154;16.458;2024-01-16T09:26:45;2.08;;;0.20;;
69310;SDS011;56430;48.154;16.458;2024-01-16T09:29:12;2.65;;;0.30;;
69310;SDS011;56430;48.154;16.458;2024-01-16T09:31:41;1.98;;;0.35;;
69310;SDS011;56430;48.154;16.458;2024-01-16T09:34:10;3.42;;;0.30;;
69310;SDS011;56430;48.154;16.458;2024-01-16T09:36:38;1.67;;;0.27;;
69310;SDS011;56430;48.154;16.458;2024-01-16T09:39:06;1.75;;;0.10;;
69310;SDS011;56430;48.154;16.458;2024-01-16T09:41:34;1.98;;;0.20;;
69310;SDS011;56430;48.154;16.458;2024-01-16T09:44:01;2.20;;;0.35;;
69310;SDS011;56430;48.154;16.458;2024-01-16T09:46:29;1.83;;;0.30;;
69310;SDS011;56430;48.154;16.458;2024-01-16T09:48:58;1.80;;;0.43;;
69310;SDS011;56430;48.154;16.458;2024-01-16T09:51:28;3.42;;;0.30;;
69310;SDS011;56430;48.154;16.458;2024-01-16T09:53:56;3.72;;;0.50;;
69310;SDS011;56430;48.154;16.458;2024-01-16T09:56:24;3.38;;;0.40;;
69310;SDS011;56430;48.154;16.458;2024-01-16T09:58:55;5.82;;;0.68;;
69310;SDS011;56430;48.154;16.458;2024-01-16T10:01:24;3.03;;;0.43;;
69310;SDS011;56430;48.154;16.458;2024-01-16T10:03:53;3.78;;;0.25;;
69310;SDS011;56430;48.154;16.458;2024-01-16T10:06:20;3.83;;;0.60;;
69310;SDS011;56430;48.154;16.458;2024-01-16T10:08:51;1.70;;;0.30;;
69310;SDS011;56430;48.154;16.458;2024-01-16T10:11:18;4.05;;;0.30;;
69310;SDS011;56430;48.154;16.458;2024-01-16T10:13:45;1.63;;;0.20;;
69310;SDS011;56430;48.154;16.458;2024-01-16T10:16:12;2.35;;;0.30;;
69310;SDS011;56430;48.154;16.458;2024-01-16T10:18:40;3.28;;;0.40;;
69310;SDS011;56430;48.154;16.458;2024-01-16T10:21:18;5.78;;;0.63;;
69310;SDS011;56430;48.154;16.458;2024-01-16T10:23:47;8.35;;;0.50;;
69310;SDS011;56430;48.154;16.458;2024-01-16T10:26:17;5.20;;;0.63;;
69310;SDS011;56430;48.154;16.458;2024-01-16T10:28:44;3.03;;;0.70;;
69310;SDS011;56430;48.154;16.458;2024-01-16T10:31:12;5.25;;;0.63;;
69310;SDS011;56430;48.154;16.458;2024-01-16T10:33:40;3.50;;;0.47;;
69310;SDS011;56430;48.154;16.458;2024-01-16T10:36:08;3.05;;;0.40;;
69310;SDS011;56430;48.154;16.458;2024-01-16T10:38:36;3.33;;;0.40;;
69310;SDS011;56430;48.154;16.458;2024-01-16T10:41:05;2.78;;;0.35;;
69310;SDS011;56430;48.154;16.458;2024-01-16T10:43:36;2.72;;;0.40;;
69310;SDS011;56430;48.154;16.458;2024-01-16T10:46:06;3.33;;;0.40;;
69310;SDS011;56430;48.154;16.458;2024-01-16T10:48:35;1.98;;;0.28;;
69310;SDS011;56430;48.154;16.458;2024-01-16T10:51:02;4.70;;;0.33;;
69310;SDS011;56430;48.154;16.458;2024-01-16T10:53:31;4.53;;;0.38;;
69310;SDS011;56430;48.154;16.458;2024-01-16T10:56:00;4.78;;;0.55;;
69310;SDS011;56430;48.154;16.458;2024-01-16T10:58:28;3.33;;;0.45;;
69310;SDS011;56430;48.154;16.458;2024-01-16T11:01:01;2.53;;;0.30;;
69310;SDS011;56430;48.154;16.458;2024-01-16T11:03:31;3.07;;;0.33;;
69310;SDS011;56430;48.154;16.458;2024-01-16T11:06:02;4.13;;;0.47;;
69310;SDS011;56430;48.154;16.458;2024-01-16T11:08:31;4.03;;;0.50;;
69310;SDS011;56430;48.154;16.458;2024-01-16T11:10:59;5.18;;;0.50;;
69310;SDS011;56430;48.154;16.458;2024-01-16T11:13:26;2.42;;;0.40;;
69310;SDS011;56430;48.154;16.458;2024-01-16T11:15:53;3.23;;;0.67;;
69310;SDS011;56430;48.154;16.458;2024-01-16T11:18:22;4.22;;;0.40;;
69310;SDS011;56430;48.154;16.458;2024-01-16T11:20:50;2.97;;;0.40;;
69310;SDS011;56430;48.154;16.458;2024-01-16T11:23:17;3.33;;;0.60;;
69310;SDS011;56430;48.154;16.458;2024-01-16T11:25:44;3.83;;;0.50;;
69310;SDS011;56430;48.154;16.458;2024-01-16T11:28:13;2.30;;;0.40;;
69310;SDS011;56430;48.154;16.458;2024-01-16T11:30:42;3.15;;;0.50;;
69310;SDS011;56430;48.154;16.458;2024-01-16T11:39:09;1.85;;;0.30;;
69310;SDS011;56430;48.154;16.458;2024-01-16T11:44:36;2.58;;;0.52;;
69310;SDS011;56430;48.154;16.458;2024-01-16T11:47:06;1.45;;;0.20;;
69310;SDS011;56430;48.154;16.458;2024-01-16T11:49:36;3.95;;;0.22;;
69310;SDS011;56430;48.154;16.458;2024-01-16T11:52:03;2.00;;;0.30;;
69310;SDS011;56430;48.154;16.458;2024-01-16T11:54:30;4.03;;;0.30;;
69310;SDS011;56430;48.154;16.458;2024-01-16T12:00:18;9.70;;;0.40;;
69310;SDS011;56430;48.154;16.458;2024-01-16T12:02:51;5.15;;;0.22;;
69310;SDS011;56430;48.154;16.458;2024-01-16T12:05:21;2.97;;;0.20;;
69310;SDS011;56430;48.154;16.458;2024-01-16T12:07:50;4.87;;;0.40;;
69310;SDS011;56430;48.154;16.458;2024-01-16T12:10:18;3.60;;;0.30;;
69310;SDS011;56430;48.154;16.458;2024-01-16T12:12:46;2.35;;;0.30;;
69310;SDS011;56430;48.154;16.458;2024-01-16T12:15:14;2.72;;;0.40;;
69310;SDS011;56430;48.154;16.458;2024-01-16T12:17:54;1.85;;;0.20;;
69310;SDS011;56430;48.154;16.458;2024-01-16T12:20:25;1.50;;;0.20;;
69310;SDS011;56430;48.154;16.458;2024-01-16T12:22:55;6.03;;;0.60;;
69310;SDS011;56430;48.154;16.458;2024-01-16T12:25:22;2.00;;;0.28;;
69310;SDS011;56430;48.154;16.458;2024-01-16T12:27:56;2.53;;;0.25;;
69310;SDS011;56430;48.154;16.458;2024-01-16T12:30:24;2.80;;;0.20;;
69310;SDS011;56430;48.154;16.458;2024-01-16T12:33:03;2.27;;;0.23;;
69310;SDS011;56430;48.154;16.458;2024-01-16T12:35:34;5.53;;;0.20;;
69310;SDS011;56430;48.154;16.458;2024-01-16T12:38:02;1.83;;;0.17;;
69310;SDS011;56430;48.154;16.458;2024-01-16T12:40:31;2.13;;;0.10;;
69310;SDS011;56430;48.154;16.458;2024-01-16T12:42:59;3.63;;;0.10;;
69310;SDS011;56430;48.154;16.458;2024-01-16T12:45:26;4.03;;;0.30;;
69310;SDS011;56430;48.154;16.458;2024-01-16T12:47:54;1.27;;;0.13;;
69310;SDS011;56430;48.154;16.458;2024-01-16T12:50:24;1.23;;;0.10;;
69310;SDS011;56430;48.154;16.458;2024-01-16T12:53:01;5.18;;;0.10;;
69310;SDS011;56430;48.154;16.458;2024-01-16T12:55:30;2.05;;;0.20;;
69310;SDS011;56430;48.154;16.458;2024-01-16T12:58:13;2.23;;;0.20;;
69310;SDS011;56430;48.154;16.458;2024-01-16T13:00:41;3.38;;;0.20;;
69310;SDS011;56430;48.154;16.458;2024-01-16T13:03:14;1.77;;;0.20;;
69310;SDS011;56430;48.154;16.458;2024-01-16T13:05:41;3.70;;;0.22;;
69310;SDS011;56430;48.154;16.458;2024-01-16T13:08:16;3.10;;;0.20;;
69310;SDS011;56430;48.154;16.458;2024-01-16T13:10:44;1.23;;;0.03;;
69310;SDS011;56430;48.154;16.458;2024-01-16T13:13:12;2.45;;;0.30;;
69310;SDS011;56430;48.154;16.458;2024-01-16T13:15:40;2.63;;;0.20;;
69310;SDS011;56430;48.154;16.458;2024-01-16T13:18:17;3.50;;;0.40;;
69310;SDS011;56430;48.154;16.458;2024-01-16T13:20:45;1.75;;;0.20;;
69310;SDS011;56430;48.154;16.458;2024-01-16T13:23:14;4.67;;;0.10;;
69310;SDS011;56430;48.154;16.458;2024-01-16T13:25:42;1.45;;;0.00;;
69310;SDS011;56430;48.154;16.458;2024-01-16T13:28:09;1.20;;;0.10;;
69310;SDS011;56430;48.154;16.458;2024-01-16T13:30:37;1.92;;;0.00;;
69310;SDS011;56430;48.154;16.458;2024-01-16T13:33:04;2.40;;;0.10;;
69310;SDS011;56430;48.154;16.458;2024-01-16T13:35:31;3.10;;;0.00;;
69310;SDS011;56430;48.154;16.458;2024-01-16T13:37:58;3.67;;;0.20;;
69310;SDS011;56430;48.154;16.458;2024-01-16T13:40:27;2.35;;;0.35;;
69310;SDS011;56430;48.154;16.458;2024-01-16T13:42:54;2.50;;;0.25;;
69310;SDS011;56430;48.154;16.458;2024-01-16T13:45:21;4.13;;;0.15;;
69310;SDS011;56430;48.154;16.458;2024-01-16T13:47:48;2.63;;;0.20;;
69310;SDS011;56430;48.154;16.458;2024-01-16T13:50:15;2.13;;;0.10;;
69310;SDS011;56430;48.154;16.458;2024-01-16T13:52:43;1.92;;;0.17;;
69310;SDS011;56430;48.154;16.458;2024-01-16T13:55:10;1.13;;;0.10;;
69310;SDS011;56430;48.154;16.458;2024-01-16T13:57:39;1.65;;;0.10;;
69310;SDS011;56430;48.154;16.458;2024-01-16T14:00:07;1.47;;;0.10;;
69310;SDS011;56430;48.154;16.458;2024-01-16T14:02:38;2.55;;;0.30;;
69310;SDS011;56430;48.154;16.458;2024-01-16T14:05:07;1.65;;;0.17;;
69310;SDS011;56430;48.154;16.458;2024-01-16T14:07:36;1.10;;;0.03;;
69310;SDS011;56430;48.154;16.458;2024-01-16T14:10:04;2.38;;;0.10;;
69310;SDS011;56430;48.154;16.458;2024-01-16T14:12:35;1.80;;;0.10;;
69310;SDS011;56430;48.154;16.458;2024-01-16T14:15:04;1.42;;;0.10;;
69310;SDS011;56430;48.154;16.458;2024-01-16T14:17:41;3.33;;;0.30;;
69310;SDS011;56430;48.154;16.458;2024-01-16T14:20:10;1.15;;;0.05;;
69310;SDS011;56430;48.154;16.458;2024-01-16T14:22:37;2.88;;;0.20;;
69310;SDS011;56430;48.154;16.458;2024-01-16T14:25:06;1.23;;;0.20;;
69310;SDS011;56430;48.154;16.458;2024-01-16T14:27:37;2.67;;;0.10;;
69310;SDS011;56430;48.154;16.458;2024-01-16T14:30:07;5.28;;;0.30;;
69310;SDS011;56430;48.154;16.458;2024-01-16T14:32:36;4.72;;;0.20;;
69310;SDS011;56430;48.154;16.458;2024-01-16T14:35:06;1.50;;;0.10;;
69310;SDS011;56430;48.154;16.458;2024-01-16T14:37:35;3.23;;;0.60;;
69310;SDS011;56430;48.154;16.458;2024-01-16T14:40:02;2.05;;;0.47;;
69310;SDS011;56430;48.154;16.458;2024-01-16T14:42:33;2.50;;;0.20;;
69310;SDS011;56430;48.154;16.458;2024-01-16T14:45:00;2.58;;;0.20;;
69310;SDS011;56430;48.154;16.458;2024-01-16T14:47:29;2.35;;;0.20;;
69310;SDS011;56430;48.154;16.458;2024-01-16T14:49:56;3.37;;;0.40;;
69310;SDS011;56430;48.154;16.458;2024-01-16T14:52:23;3.55;;;0.50;;
69310;SDS011;56430;48.154;16.458;2024-01-16T14:54:50;6.93;;;0.47;;